sensor_id;sensor_type;location;lat;lon;timestamp;P1;durP1;ratioP1;P2;durP2;ratioP2
51764;SDS011;37835;53.256;6.456;2023-07-02T00:01:18;18.02;;;6.90;;
51764;SDS011;37835;53.256;6.456;2023-07-02T00:03:43;25.25;;;7.22;;
51764;SDS011;37835;53.256;6.456;2023-07-02T00:06:09;19.75;;;7.32;;
51764;SDS011;37835;53.256;6.456;2023-07-02T00:08:35;21.13;;;7.88;;
51764;SDS011;37835;53.256;6.456;2023-07-02T00:11:00;24.65;;;8.57;;
51764;SDS011;37835;53.256;6.456;2023-07-02T00:13:26;24.73;;;7.30;;
51764;SDS011;37835;53.256;6.456;2023-07-02T00:15:51;25.17;;;8.13;;
51764;SDS011;37835;53.256;6.456;2023-07-02T00:18:17;23.50;;;8.10;;
51764;SDS011;37835;53.256;6.456;2023-07-02T00:20:43;29.30;;;8.77;;
51764;SDS011;37835;53.256;6.456;2023-07-02T00:23:08;20.80;;;8.00;;
51764;SDS011;37835;53.256;6.456;2023-07-02T00:25:35;25.73;;;8.68;;
51764;SDS011;37835;53.256;6.456;2023-07-02T00:28:01;25.73;;;8.32;;
51764;SDS011;37835;53.256;6.456;2023-07-02T00:30:27;23.75;;;8.57;;
51764;SDS011;37835;53.256;6.456;2023-07-02T00:32:52;23.88;;;8.35;;
51764;SDS011;37835;53.256;6.456;2023-07-02T00:35:18;24.90;;;7.88;;
51764;SDS011;37835;53.256;6.456;2023-07-02T00:37:44;26.08;;;8.70;;
51764;SDS011;37835;53.256;6.456;2023-07-02T00:40:09;26.75;;;8.57;;
51764;SDS011;37835;53.256;6.456;2023-07-02T00:42:35;26.10;;;8.38;;
51764;SDS011;37835;53.256;6.456;2023-07-02T00:45:01;27.15;;;8.45;;
51764;SDS011;37835;53.256;6.456;2023-07-02T00:47:30;25.45;;;8.60;;
51764;SDS011;37835;53.256;6.456;2023-07-02T00:49:58;27.45;;;8.88;;
51764;SDS011;37835;53.256;6.456;2023-07-02T00:52:24;21.98;;;7.78;;
51764;SDS011;37835;53.256;6.456;2023-07-02T00:54:51;26.48;;;8.75;;
51764;SDS011;37835;53.256;6.456;2023-07-02T00:57:17;21.83;;;8.02;;
51764;SDS011;37835;53.256;6.456;2023-07-02T00:59:42;29.10;;;9.38;;
51764;SDS011;37835;53.256;6.456;2023-07-02T01:02:08;28.33;;;8.48;;
51764;SDS011;37835;53.256;6.456;2023-07-02T01:04:34;29.20;;;9.57;;
51764;SDS011;37835;53.256;6.456;2023-07-02T01:06:59;23.13;;;8.50;;
51764;SDS011;37835;53.256;6.456;2023-07-02T01:09:25;27.13;;;10.00;;
51764;SDS011;37835;53.256;6.456;2023-07-02T01:12:04;25.90;;;9.32;;
51764;SDS011;37835;53.256;6.456;2023-07-02T01:14:34;27.70;;;8.55;;
51764;SDS011;37835;53.256;6.456;2023-07-02T01:17:06;26.42;;;9.23;;
51764;SDS011;37835;53.256;6.456;2023-07-02T01:19:39;26.42;;;9.23;;
51764;SDS011;37835;53.256;6.456;2023-07-02T01:24:46;25.58;;;8.82;;
51764;SDS011;37835;53.256;6.456;2023-07-02T01:27:13;26.08;;;8.85;;
51764;SDS011;37835;53.256;6.456;2023-07-02T01:29:39;29.00;;;9.48;;
51764;SDS011;37835;53.256;6.456;2023-07-02T01:32:05;31.67;;;10.85;;
51764;SDS011;37835;53.256;6.456;2023-07-02T01:34:31;24.73;;;9.30;;
51764;SDS011;37835;53.256;6.456;2023-07-02T01:36:57;32.00;;;9.77;;
51764;SDS011;37835;53.256;6.456;2023-07-02T01:39:22;28.98;;;9.40;;
51764;SDS011;37835;53.256;6.456;2023-07-02T01:41:52;31.23;;;9.52;;
51764;SDS011;37835;53.256;6.456;2023-07-02T01:44:19;24.80;;;9.05;;
51764;SDS011;37835;53.256;6.456;2023-07-02T01:46:46;28.02;;;10.18;;
51764;SDS011;37835;53.256;6.456;2023-07-02T01:49:15;31.83;;;10.23;;
51764;SDS011;37835;53.256;6.456;2023-07-02T01:51:44;30.42;;;9.98;;
51764;SDS011;37835;53.256;6.456;2023-07-02T01:54:10;27.15;;;9.15;;
51764;SDS011;37835;53.256;6.456;2023-07-02T01:56:36;26.33;;;9.23;;
51764;SDS011;37835;53.256;6.456;2023-07-02T01:59:01;38.58;;;9.57;;
51764;SDS011;37835;53.256;6.456;2023-07-02T02:01:27;34.13;;;10.27;;
51764;SDS011;37835;53.256;6.456;2023-07-02T02:03:52;35.10;;;10.77;;
51764;SDS011;37835;53.256;6.456;2023-07-02T02:06:18;32.58;;;10.60;;
51764;SDS011;37835;53.256;6.456;2023-07-02T02:08:44;33.08;;;10.90;;
51764;SDS011;37835;53.256;6.456;2023-07-02T02:11:09;29.25;;;9.85;;
51764;SDS011;37835;53.256;6.456;2023-07-02T02:13:35;32.63;;;9.52;;
51764;SDS011;37835;53.256;6.456;2023-07-02T02:16:00;29.35;;;9.60;;
51764;SDS011;37835;53.256;6.456;2023-07-02T02:18:26;31.45;;;10.18;;
51764;SDS011;37835;53.256;6.456;2023-07-02T02:20:51;30.13;;;9.68;;
51764;SDS011;37835;53.256;6.456;2023-07-02T02:23:17;37.30;;;10.55;;
51764;SDS011;37835;53.256;6.456;2023-07-02T02:25:42;40.83;;;10.80;;
51764;SDS011;37835;53.256;6.456;2023-07-02T02:28:08;28.27;;;9.13;;
51764;SDS011;37835;53.256;6.456;2023-07-02T02:30:33;33.20;;;9.93;;
51764;SDS011;37835;53.256;6.456;2023-07-02T02:32:59;29.85;;;9.82;;
51764;SDS011;37835;53.256;6.456;2023-07-02T02:35:25;23.95;;;9.30;;
51764;SDS011;37835;53.256;6.456;2023-07-02T02:37:50;33.20;;;10.07;;
51764;SDS011;37835;53.256;6.456;2023-07-02T02:40:16;26.10;;;9.15;;
51764;SDS011;37835;53.256;6.456;2023-07-02T02:42:41;34.05;;;9.75;;
51764;SDS011;37835;53.256;6.456;2023-07-02T02:45:07;39.75;;;10.43;;
51764;SDS011;37835;53.256;6.456;2023-07-02T02:47:33;41.17;;;11.18;;
51764;SDS011;37835;53.256;6.456;2023-07-02T02:49:59;29.92;;;10.13;;
51764;SDS011;37835;53.256;6.456;2023-07-02T02:52:24;30.48;;;10.02;;
51764;SDS011;37835;53.256;6.456;2023-07-02T02:54:50;28.13;;;9.75;;
51764;SDS011;37835;53.256;6.456;2023-07-02T02:57:18;27.25;;;9.60;;
51764;SDS011;37835;53.256;6.456;2023-07-02T02:59:43;33.72;;;10.38;;
51764;SDS011;37835;53.256;6.456;2023-07-02T03:02:09;26.98;;;10.02;;
51764;SDS011;37835;53.256;6.456;2023-07-02T03:04:34;24.52;;;9.57;;
51764;SDS011;37835;53.256;6.456;2023-07-02T03:07:05;32.35;;;10.15;;
51764;SDS011;37835;53.256;6.456;2023-07-02T03:09:32;30.40;;;10.07;;
51764;SDS011;37835;53.256;6.456;2023-07-02T03:11:57;29.67;;;10.07;;
51764;SDS011;37835;53.256;6.456;2023-07-02T03:14:23;31.38;;;10.00;;
51764;SDS011;37835;53.256;6.456;2023-07-02T03:16:48;39.53;;;11.48;;
51764;SDS011;37835;53.256;6.456;2023-07-02T03:19:14;36.55;;;11.02;;
51764;SDS011;37835;53.256;6.456;2023-07-02T03:21:42;29.27;;;10.07;;
51764;SDS011;37835;53.256;6.456;2023-07-02T03:24:10;28.42;;;10.20;;
51764;SDS011;37835;53.256;6.456;2023-07-02T03:26:38;27.75;;;9.63;;
51764;SDS011;37835;53.256;6.456;2023-07-02T03:29:04;31.30;;;9.60;;
51764;SDS011;37835;53.256;6.456;2023-07-02T03:31:30;36.63;;;10.13;;
51764;SDS011;37835;53.256;6.456;2023-07-02T03:33:56;26.90;;;8.90;;
51764;SDS011;37835;53.256;6.456;2023-07-02T03:36:22;27.35;;;9.48;;
51764;SDS011;37835;53.256;6.456;2023-07-02T03:38:47;24.35;;;9.23;;
51764;SDS011;37835;53.256;6.456;2023-07-02T03:41:13;39.00;;;11.18;;
51764;SDS011;37835;53.256;6.456;2023-07-02T03:43:38;29.50;;;10.23;;
51764;SDS011;37835;53.256;6.456;2023-07-02T03:46:04;25.83;;;9.00;;
51764;SDS011;37835;53.256;6.456;2023-07-02T03:48:30;32.65;;;10.45;;
51764;SDS011;37835;53.256;6.456;2023-07-02T03:50:55;30.00;;;9.48;;
51764;SDS011;37835;53.256;6.456;2023-07-02T03:53:21;32.53;;;10.68;;
51764;SDS011;37835;53.256;6.456;2023-07-02T03:55:46;26.17;;;8.90;;
51764;SDS011;37835;53.256;6.456;2023-07-02T03:58:12;33.72;;;9.52;;
51764;SDS011;37835;53.256;6.456;2023-07-02T04:00:37;34.08;;;9.20;;
51764;SDS011;37835;53.256;6.456;2023-07-02T04:03:03;29.83;;;9.23;;
51764;SDS011;37835;53.256;6.456;2023-07-02T04:05:29;30.35;;;9.35;;
51764;SDS011;37835;53.256;6.456;2023-07-02T04:07:54;20.55;;;8.63;;
51764;SDS011;37835;53.256;6.456;2023-07-02T04:10:20;36.25;;;9.05;;
51764;SDS011;37835;53.256;6.456;2023-07-02T04:12:46;30.42;;;9.25;;
51764;SDS011;37835;53.256;6.456;2023-07-02T04:15:11;33.70;;;9.45;;
51764;SDS011;37835;53.256;6.456;2023-07-02T04:17:37;27.17;;;8.75;;
51764;SDS011;37835;53.256;6.456;2023-07-02T04:20:02;20.95;;;8.05;;
51764;SDS011;37835;53.256;6.456;2023-07-02T04:22:29;33.03;;;8.75;;
51764;SDS011;37835;53.256;6.456;2023-07-02T04:24:55;30.88;;;8.93;;
51764;SDS011;37835;53.256;6.456;2023-07-02T04:27:21;29.77;;;9.35;;
51764;SDS011;37835;53.256;6.456;2023-07-02T04:29:46;25.17;;;9.13;;
51764;SDS011;37835;53.256;6.456;2023-07-02T04:32:12;23.80;;;8.35;;
51764;SDS011;37835;53.256;6.456;2023-07-02T04:34:37;27.95;;;9.07;;
51764;SDS011;37835;53.256;6.456;2023-07-02T04:37:03;31.00;;;8.48;;
51764;SDS011;37835;53.256;6.456;2023-07-02T04:39:30;29.50;;;9.23;;
51764;SDS011;37835;53.256;6.456;2023-07-02T04:41:55;27.02;;;9.02;;
51764;SDS011;37835;53.256;6.456;2023-07-02T04:44:21;27.92;;;9.13;;
51764;SDS011;37835;53.256;6.456;2023-07-02T04:46:57;28.40;;;8.32;;
51764;SDS011;37835;53.256;6.456;2023-07-02T04:49:24;27.90;;;8.32;;
51764;SDS011;37835;53.256;6.456;2023-07-02T04:51:50;20.63;;;7.72;;
51764;SDS011;37835;53.256;6.456;2023-07-02T04:54:16;28.33;;;8.68;;
51764;SDS011;37835;53.256;6.456;2023-07-02T04:56:41;25.98;;;9.00;;
51764;SDS011;37835;53.256;6.456;2023-07-02T04:59:07;24.60;;;8.00;;
51764;SDS011;37835;53.256;6.456;2023-07-02T05:01:32;26.33;;;7.57;;
51764;SDS011;37835;53.256;6.456;2023-07-02T05:03:58;22.23;;;6.93;;
51764;SDS011;37835;53.256;6.456;2023-07-02T05:06:23;21.38;;;6.60;;
51764;SDS011;37835;53.256;6.456;2023-07-02T05:08:49;18.75;;;6.53;;
51764;SDS011;37835;53.256;6.456;2023-07-02T05:11:15;19.77;;;6.70;;
51764;SDS011;37835;53.256;6.456;2023-07-02T05:13:40;24.95;;;7.07;;
51764;SDS011;37835;53.256;6.456;2023-07-02T05:16:06;19.05;;;6.45;;
51764;SDS011;37835;53.256;6.456;2023-07-02T05:18:31;18.55;;;6.18;;
51764;SDS011;37835;53.256;6.456;2023-07-02T05:20:57;23.98;;;6.65;;
51764;SDS011;37835;53.256;6.456;2023-07-02T05:23:22;21.45;;;6.78;;
51764;SDS011;37835;53.256;6.456;2023-07-02T05:25:48;16.83;;;5.93;;
51764;SDS011;37835;53.256;6.456;2023-07-02T05:28:14;15.50;;;5.70;;
51764;SDS011;37835;53.256;6.456;2023-07-02T05:30:39;23.75;;;7.03;;
51764;SDS011;37835;53.256;6.456;2023-07-02T05:33:05;16.20;;;6.15;;
51764;SDS011;37835;53.256;6.456;2023-07-02T05:35:30;21.25;;;6.05;;
51764;SDS011;37835;53.256;6.456;2023-07-02T05:37:56;20.23;;;6.47;;
51764;SDS011;37835;53.256;6.456;2023-07-02T05:40:21;19.45;;;6.18;;
51764;SDS011;37835;53.256;6.456;2023-07-02T05:42:47;22.95;;;6.57;;
51764;SDS011;37835;53.256;6.456;2023-07-02T05:45:12;17.60;;;6.57;;
51764;SDS011;37835;53.256;6.456;2023-07-02T05:47:38;21.25;;;6.72;;
51764;SDS011;37835;53.256;6.456;2023-07-02T05:50:04;23.13;;;6.70;;
51764;SDS011;37835;53.256;6.456;2023-07-02T05:52:31;14.68;;;6.43;;
51764;SDS011;37835;53.256;6.456;2023-07-02T05:54:56;22.40;;;6.50;;
51764;SDS011;37835;53.256;6.456;2023-07-02T05:57:22;25.73;;;6.80;;
51764;SDS011;37835;53.256;6.456;2023-07-02T05:59:47;21.85;;;6.57;;
51764;SDS011;37835;53.256;6.456;2023-07-02T06:02:13;18.30;;;5.88;;
51764;SDS011;37835;53.256;6.456;2023-07-02T06:04:38;18.52;;;6.88;;
51764;SDS011;37835;53.256;6.456;2023-07-02T06:07:04;16.55;;;6.47;;
51764;SDS011;37835;53.256;6.456;2023-07-02T06:09:30;26.00;;;6.70;;
51764;SDS011;37835;53.256;6.456;2023-07-02T06:11:56;19.15;;;6.00;;
51764;SDS011;37835;53.256;6.456;2023-07-02T06:14:22;21.63;;;6.65;;
51764;SDS011;37835;53.256;6.456;2023-07-02T06:16:50;19.90;;;5.50;;
51764;SDS011;37835;53.256;6.456;2023-07-02T06:19:17;25.45;;;6.90;;
51764;SDS011;37835;53.256;6.456;2023-07-02T06:21:43;22.58;;;6.15;;
51764;SDS011;37835;53.256;6.456;2023-07-02T06:24:08;20.10;;;5.82;;
51764;SDS011;37835;53.256;6.456;2023-07-02T06:26:34;22.88;;;6.28;;
51764;SDS011;37835;53.256;6.456;2023-07-02T06:28:59;18.55;;;5.97;;
51764;SDS011;37835;53.256;6.456;2023-07-02T06:31:25;18.08;;;5.00;;
51764;SDS011;37835;53.256;6.456;2023-07-02T06:33:51;12.82;;;4.60;;
51764;SDS011;37835;53.256;6.456;2023-07-02T06:36:16;14.27;;;4.75;;
51764;SDS011;37835;53.256;6.456;2023-07-02T06:38:42;17.67;;;4.20;;
51764;SDS011;37835;53.256;6.456;2023-07-02T06:41:08;16.10;;;4.00;;
51764;SDS011;37835;53.256;6.456;2023-07-02T06:43:34;12.40;;;4.10;;
51764;SDS011;37835;53.256;6.456;2023-07-02T06:45:59;16.00;;;4.85;;
51764;SDS011;37835;53.256;6.456;2023-07-02T06:48:25;12.52;;;4.20;;
51764;SDS011;37835;53.256;6.456;2023-07-02T06:50:51;13.02;;;4.55;;
51764;SDS011;37835;53.256;6.456;2023-07-02T06:53:16;14.95;;;4.72;;
51764;SDS011;37835;53.256;6.456;2023-07-02T06:55:42;17.90;;;4.38;;
51764;SDS011;37835;53.256;6.456;2023-07-02T06:58:07;16.60;;;4.15;;
51764;SDS011;37835;53.256;6.456;2023-07-02T07:00:33;12.43;;;4.00;;
51764;SDS011;37835;53.256;6.456;2023-07-02T07:03:01;11.73;;;3.58;;
51764;SDS011;37835;53.256;6.456;2023-07-02T07:05:33;17.27;;;4.65;;
51764;SDS011;37835;53.256;6.456;2023-07-02T07:08:01;13.68;;;3.83;;
51764;SDS011;37835;53.256;6.456;2023-07-02T07:10:27;15.00;;;3.42;;
51764;SDS011;37835;53.256;6.456;2023-07-02T07:12:53;20.70;;;3.72;;
51764;SDS011;37835;53.256;6.456;2023-07-02T07:15:19;13.43;;;3.30;;
51764;SDS011;37835;53.256;6.456;2023-07-02T07:17:45;11.88;;;3.50;;
51764;SDS011;37835;53.256;6.456;2023-07-02T07:20:11;12.38;;;3.90;;
51764;SDS011;37835;53.256;6.456;2023-07-02T07:22:37;10.43;;;3.42;;
51764;SDS011;37835;53.256;6.456;2023-07-02T07:25:03;14.65;;;3.38;;
51764;SDS011;37835;53.256;6.456;2023-07-02T07:27:29;10.68;;;3.35;;
51764;SDS011;37835;53.256;6.456;2023-07-02T07:29:54;11.70;;;3.08;;
51764;SDS011;37835;53.256;6.456;2023-07-02T07:32:20;20.70;;;3.22;;
51764;SDS011;37835;53.256;6.456;2023-07-02T07:34:46;14.05;;;3.50;;
51764;SDS011;37835;53.256;6.456;2023-07-02T07:37:12;12.30;;;3.78;;
51764;SDS011;37835;53.256;6.456;2023-07-02T07:39:37;13.30;;;3.13;;
51764;SDS011;37835;53.256;6.456;2023-07-02T07:42:03;13.27;;;3.85;;
51764;SDS011;37835;53.256;6.456;2023-07-02T07:44:29;12.95;;;3.60;;
51764;SDS011;37835;53.256;6.456;2023-07-02T07:46:55;16.45;;;3.88;;
51764;SDS011;37835;53.256;6.456;2023-07-02T07:49:21;10.18;;;3.58;;
51764;SDS011;37835;53.256;6.456;2023-07-02T07:51:46;12.32;;;3.58;;
51764;SDS011;37835;53.256;6.456;2023-07-02T07:54:12;13.40;;;3.40;;
51764;SDS011;37835;53.256;6.456;2023-07-02T07:56:38;13.10;;;3.70;;
51764;SDS011;37835;53.256;6.456;2023-07-02T07:59:03;13.70;;;4.13;;
51764;SDS011;37835;53.256;6.456;2023-07-02T08:01:29;17.63;;;3.95;;
51764;SDS011;37835;53.256;6.456;2023-07-02T08:03:55;10.05;;;3.25;;
51764;SDS011;37835;53.256;6.456;2023-07-02T08:06:21;14.60;;;3.67;;
51764;SDS011;37835;53.256;6.456;2023-07-02T08:08:47;14.15;;;3.20;;
51764;SDS011;37835;53.256;6.456;2023-07-02T08:11:12;9.45;;;3.20;;
51764;SDS011;37835;53.256;6.456;2023-07-02T08:13:38;15.70;;;2.90;;
51764;SDS011;37835;53.256;6.456;2023-07-02T08:16:04;12.20;;;3.72;;
51764;SDS011;37835;53.256;6.456;2023-07-02T08:18:29;12.73;;;3.97;;
51764;SDS011;37835;53.256;6.456;2023-07-02T08:20:55;13.73;;;3.40;;
51764;SDS011;37835;53.256;6.456;2023-07-02T08:23:20;15.95;;;3.90;;
51764;SDS011;37835;53.256;6.456;2023-07-02T08:25:46;9.45;;;3.38;;
51764;SDS011;37835;53.256;6.456;2023-07-02T08:28:12;11.60;;;3.85;;
51764;SDS011;37835;53.256;6.456;2023-07-02T08:30:37;12.45;;;4.72;;
51764;SDS011;37835;53.256;6.456;2023-07-02T08:33:03;13.25;;;4.20;;
51764;SDS011;37835;53.256;6.456;2023-07-02T08:35:29;13.77;;;4.45;;
51764;SDS011;37835;53.256;6.456;2023-07-02T08:37:57;13.95;;;4.10;;
51764;SDS011;37835;53.256;6.456;2023-07-02T08:40:23;17.10;;;4.40;;
51764;SDS011;37835;53.256;6.456;2023-07-02T08:42:48;16.63;;;4.55;;
51764;SDS011;37835;53.256;6.456;2023-07-02T08:45:15;16.90;;;5.13;;
51764;SDS011;37835;53.256;6.456;2023-07-02T08:47:44;14.13;;;3.75;;
51764;SDS011;37835;53.256;6.456;2023-07-02T08:50:11;16.25;;;4.20;;
51764;SDS011;37835;53.256;6.456;2023-07-02T08:52:38;12.20;;;4.10;;
51764;SDS011;37835;53.256;6.456;2023-07-02T08:55:04;16.13;;;4.40;;
51764;SDS011;37835;53.256;6.456;2023-07-02T08:57:30;18.40;;;4.28;;
51764;SDS011;37835;53.256;6.456;2023-07-02T08:59:55;15.15;;;3.88;;
51764;SDS011;37835;53.256;6.456;2023-07-02T09:02:33;10.43;;;3.40;;
51764;SDS011;37835;53.256;6.456;2023-07-02T09:05:00;12.90;;;3.25;;
51764;SDS011;37835;53.256;6.456;2023-07-02T09:07:26;12.73;;;3.42;;
51764;SDS011;37835;53.256;6.456;2023-07-02T09:09:51;19.48;;;4.22;;
51764;SDS011;37835;53.256;6.456;2023-07-02T09:12:27;14.70;;;3.70;;
51764;SDS011;37835;53.256;6.456;2023-07-02T09:15:06;9.18;;;2.92;;
51764;SDS011;37835;53.256;6.456;2023-07-02T09:17:33;16.48;;;3.20;;
51764;SDS011;37835;53.256;6.456;2023-07-02T09:20:01;9.02;;;2.65;;
51764;SDS011;37835;53.256;6.456;2023-07-02T09:22:33;6.00;;;2.35;;
51764;SDS011;37835;53.256;6.456;2023-07-02T09:24:59;10.48;;;2.50;;
51764;SDS011;37835;53.256;6.456;2023-07-02T09:27:35;10.73;;;3.10;;
51764;SDS011;37835;53.256;6.456;2023-07-02T09:30:15;10.48;;;2.67;;
51764;SDS011;37835;53.256;6.456;2023-07-02T09:32:44;8.45;;;2.40;;
51764;SDS011;37835;53.256;6.456;2023-07-02T09:35:10;16.00;;;3.50;;
51764;SDS011;37835;53.256;6.456;2023-07-02T09:37:37;9.95;;;2.90;;
51764;SDS011;37835;53.256;6.456;2023-07-02T09:40:04;13.00;;;3.45;;
51764;SDS011;37835;53.256;6.456;2023-07-02T09:42:32;10.63;;;2.60;;
51764;SDS011;37835;53.256;6.456;2023-07-02T09:45:00;7.38;;;2.20;;
51764;SDS011;37835;53.256;6.456;2023-07-02T09:47:27;6.82;;;2.50;;
51764;SDS011;37835;53.256;6.456;2023-07-02T09:49:55;10.00;;;2.30;;
51764;SDS011;37835;53.256;6.456;2023-07-02T09:52:24;10.20;;;2.70;;
51764;SDS011;37835;53.256;6.456;2023-07-02T09:54:52;10.95;;;2.85;;
51764;SDS011;37835;53.256;6.456;2023-07-02T09:57:18;16.25;;;3.20;;
51764;SDS011;37835;53.256;6.456;2023-07-02T09:59:43;13.18;;;2.70;;
51764;SDS011;37835;53.256;6.456;2023-07-02T10:02:09;8.13;;;2.88;;
51764;SDS011;37835;53.256;6.456;2023-07-02T10:04:40;15.65;;;3.30;;
51764;SDS011;37835;53.256;6.456;2023-07-02T10:07:06;8.73;;;2.50;;
51764;SDS011;37835;53.256;6.456;2023-07-02T10:09:43;11.75;;;2.67;;
51764;SDS011;37835;53.256;6.456;2023-07-02T10:14:46;13.35;;;2.92;;
51764;SDS011;37835;53.256;6.456;2023-07-02T10:19:54;19.13;;;3.22;;
51764;SDS011;37835;53.256;6.456;2023-07-02T10:22:22;12.02;;;3.50;;
51764;SDS011;37835;53.256;6.456;2023-07-02T10:24:51;9.50;;;3.05;;
51764;SDS011;37835;53.256;6.456;2023-07-02T10:27:40;9.00;;;2.78;;
51764;SDS011;37835;53.256;6.456;2023-07-02T10:30:08;18.23;;;3.17;;
51764;SDS011;37835;53.256;6.456;2023-07-02T10:32:35;10.38;;;2.90;;
51764;SDS011;37835;53.256;6.456;2023-07-02T10:35:24;9.88;;;2.88;;
51764;SDS011;37835;53.256;6.456;2023-07-02T10:37:50;14.65;;;3.20;;
51764;SDS011;37835;53.256;6.456;2023-07-02T10:40:16;11.18;;;2.88;;
51764;SDS011;37835;53.256;6.456;2023-07-02T10:42:48;8.05;;;2.80;;
51764;SDS011;37835;53.256;6.456;2023-07-02T10:45:15;11.32;;;3.67;;
51764;SDS011;37835;53.256;6.456;2023-07-02T10:47:41;11.98;;;3.35;;
51764;SDS011;37835;53.256;6.456;2023-07-02T10:50:14;13.35;;;3.90;;
51764;SDS011;37835;53.256;6.456;2023-07-02T10:52:44;11.52;;;3.25;;
51764;SDS011;37835;53.256;6.456;2023-07-02T10:55:10;10.05;;;2.83;;
51764;SDS011;37835;53.256;6.456;2023-07-02T10:57:35;6.20;;;2.38;;
51764;SDS011;37835;53.256;6.456;2023-07-02T11:00:07;8.60;;;2.65;;
51764;SDS011;37835;53.256;6.456;2023-07-02T11:02:34;11.05;;;3.15;;
51764;SDS011;37835;53.256;6.456;2023-07-02T11:05:00;7.00;;;2.50;;
51764;SDS011;37835;53.256;6.456;2023-07-02T11:07:27;8.90;;;2.28;;
51764;SDS011;37835;53.256;6.456;2023-07-02T11:09:52;10.05;;;2.72;;
51764;SDS011;37835;53.256;6.456;2023-07-02T11:12:18;11.18;;;2.60;;
51764;SDS011;37835;53.256;6.456;2023-07-02T11:15:06;10.65;;;2.90;;
51764;SDS011;37835;53.256;6.456;2023-07-02T11:17:32;10.10;;;3.05;;
51764;SDS011;37835;53.256;6.456;2023-07-02T11:19:58;16.13;;;2.92;;
51764;SDS011;37835;53.256;6.456;2023-07-02T11:22:33;13.02;;;2.70;;
51764;SDS011;37835;53.256;6.456;2023-07-02T11:25:12;8.63;;;2.15;;
51764;SDS011;37835;53.256;6.456;2023-07-02T11:27:40;9.63;;;2.10;;
51764;SDS011;37835;53.256;6.456;2023-07-02T11:30:06;7.38;;;2.17;;
51764;SDS011;37835;53.256;6.456;2023-07-02T11:32:52;9.63;;;2.60;;
51764;SDS011;37835;53.256;6.456;2023-07-02T11:35:18;8.50;;;2.38;;
51764;SDS011;37835;53.256;6.456;2023-07-02T11:37:48;8.90;;;3.10;;
51764;SDS011;37835;53.256;6.456;2023-07-02T11:40:14;7.90;;;2.50;;
51764;SDS011;37835;53.256;6.456;2023-07-02T11:42:42;9.35;;;2.20;;
51764;SDS011;37835;53.256;6.456;2023-07-02T11:45:09;11.90;;;2.15;;
51764;SDS011;37835;53.256;6.456;2023-07-02T11:47:35;11.07;;;2.80;;
51764;SDS011;37835;53.256;6.456;2023-07-02T11:50:00;8.02;;;2.70;;
51764;SDS011;37835;53.256;6.456;2023-07-02T11:52:26;10.25;;;3.20;;
51764;SDS011;37835;53.256;6.456;2023-07-02T11:54:51;8.32;;;2.75;;
51764;SDS011;37835;53.256;6.456;2023-07-02T11:57:17;7.00;;;2.50;;
51764;SDS011;37835;53.256;6.456;2023-07-02T11:59:43;9.95;;;2.63;;
51764;SDS011;37835;53.256;6.456;2023-07-02T12:02:08;9.35;;;2.40;;
51764;SDS011;37835;53.256;6.456;2023-07-02T12:04:34;7.93;;;2.15;;
51764;SDS011;37835;53.256;6.456;2023-07-02T12:06:59;11.65;;;2.75;;
51764;SDS011;37835;53.256;6.456;2023-07-02T12:09:28;14.57;;;2.97;;
51764;SDS011;37835;53.256;6.456;2023-07-02T12:11:54;10.82;;;2.88;;
51764;SDS011;37835;53.256;6.456;2023-07-02T12:14:20;12.00;;;2.88;;
51764;SDS011;37835;53.256;6.456;2023-07-02T12:16:45;8.15;;;2.58;;
51764;SDS011;37835;53.256;6.456;2023-07-02T12:19:11;8.25;;;2.50;;
51764;SDS011;37835;53.256;6.456;2023-07-02T12:21:37;10.00;;;2.90;;
51764;SDS011;37835;53.256;6.456;2023-07-02T12:24:02;7.10;;;2.70;;
51764;SDS011;37835;53.256;6.456;2023-07-02T12:26:28;6.70;;;2.83;;
51764;SDS011;37835;53.256;6.456;2023-07-02T12:28:54;9.13;;;2.60;;
51764;SDS011;37835;53.256;6.456;2023-07-02T12:31:20;10.23;;;2.70;;
51764;SDS011;37835;53.256;6.456;2023-07-02T12:33:45;5.78;;;2.70;;
51764;SDS011;37835;53.256;6.456;2023-07-02T12:36:11;7.43;;;3.30;;
51764;SDS011;37835;53.256;6.456;2023-07-02T12:38:37;6.47;;;2.95;;
51764;SDS011;37835;53.256;6.456;2023-07-02T12:41:03;10.90;;;2.70;;
51764;SDS011;37835;53.256;6.456;2023-07-02T12:43:28;9.40;;;3.17;;
51764;SDS011;37835;53.256;6.456;2023-07-02T12:45:54;7.28;;;2.80;;
51764;SDS011;37835;53.256;6.456;2023-07-02T12:48:19;14.05;;;3.55;;
51764;SDS011;37835;53.256;6.456;2023-07-02T12:50:58;10.60;;;3.33;;
51764;SDS011;37835;53.256;6.456;2023-07-02T12:53:25;8.93;;;3.33;;
51764;SDS011;37835;53.256;6.456;2023-07-02T12:55:52;9.48;;;3.10;;
51764;SDS011;37835;53.256;6.456;2023-07-02T12:58:18;10.18;;;3.60;;
51764;SDS011;37835;53.256;6.456;2023-07-02T13:00:44;9.40;;;2.95;;
51764;SDS011;37835;53.256;6.456;2023-07-02T13:03:11;8.15;;;3.47;;
51764;SDS011;37835;53.256;6.456;2023-07-02T13:05:37;12.18;;;3.13;;
51764;SDS011;37835;53.256;6.456;2023-07-02T13:08:03;11.52;;;3.40;;
51764;SDS011;37835;53.256;6.456;2023-07-02T13:10:29;13.48;;;3.70;;
51764;SDS011;37835;53.256;6.456;2023-07-02T13:12:55;15.45;;;4.00;;
51764;SDS011;37835;53.256;6.456;2023-07-02T13:15:21;10.50;;;3.90;;
51764;SDS011;37835;53.256;6.456;2023-07-02T13:17:47;9.15;;;3.50;;
51764;SDS011;37835;53.256;6.456;2023-07-02T13:20:13;17.55;;;5.13;;
51764;SDS011;37835;53.256;6.456;2023-07-02T13:22:39;11.10;;;4.22;;
51764;SDS011;37835;53.256;6.456;2023-07-02T13:25:05;17.38;;;4.50;;
51764;SDS011;37835;53.256;6.456;2023-07-02T13:27:31;11.30;;;4.10;;
51764;SDS011;37835;53.256;6.456;2023-07-02T13:29:57;8.75;;;4.00;;
51764;SDS011;37835;53.256;6.456;2023-07-02T13:32:23;12.10;;;4.18;;
51764;SDS011;37835;53.256;6.456;2023-07-02T13:34:49;12.70;;;4.35;;
51764;SDS011;37835;53.256;6.456;2023-07-02T13:37:14;15.40;;;3.72;;
51764;SDS011;37835;53.256;6.456;2023-07-02T13:39:43;9.90;;;4.00;;
51764;SDS011;37835;53.256;6.456;2023-07-02T13:42:09;14.30;;;4.57;;
51764;SDS011;37835;53.256;6.456;2023-07-02T13:44:35;12.63;;;4.20;;
51764;SDS011;37835;53.256;6.456;2023-07-02T13:47:01;13.05;;;3.60;;
51764;SDS011;37835;53.256;6.456;2023-07-02T13:49:26;15.77;;;3.97;;
51764;SDS011;37835;53.256;6.456;2023-07-02T13:51:52;14.85;;;4.20;;
51764;SDS011;37835;53.256;6.456;2023-07-02T13:54:18;16.35;;;4.63;;
51764;SDS011;37835;53.256;6.456;2023-07-02T13:56:45;10.23;;;4.43;;
51764;SDS011;37835;53.256;6.456;2023-07-02T13:59:11;13.48;;;4.90;;
51764;SDS011;37835;53.256;6.456;2023-07-02T14:01:36;13.52;;;4.03;;
51764;SDS011;37835;53.256;6.456;2023-07-02T14:04:02;11.35;;;3.88;;
51764;SDS011;37835;53.256;6.456;2023-07-02T14:06:29;11.15;;;3.47;;
51764;SDS011;37835;53.256;6.456;2023-07-02T14:08:55;11.07;;;3.88;;
51764;SDS011;37835;53.256;6.456;2023-07-02T14:11:21;9.23;;;4.03;;
51764;SDS011;37835;53.256;6.456;2023-07-02T14:13:48;10.13;;;3.97;;
51764;SDS011;37835;53.256;6.456;2023-07-02T14:16:13;9.18;;;3.72;;
51764;SDS011;37835;53.256;6.456;2023-07-02T14:18:39;11.45;;;3.55;;
51764;SDS011;37835;53.256;6.456;2023-07-02T14:21:05;9.70;;;3.67;;
51764;SDS011;37835;53.256;6.456;2023-07-02T14:23:31;13.80;;;3.88;;
51764;SDS011;37835;53.256;6.456;2023-07-02T14:25:57;12.38;;;3.78;;
51764;SDS011;37835;53.256;6.456;2023-07-02T14:28:23;17.02;;;4.70;;
51764;SDS011;37835;53.256;6.456;2023-07-02T14:30:55;9.48;;;4.00;;
51764;SDS011;37835;53.256;6.456;2023-07-02T14:33:26;9.82;;;4.50;;
51764;SDS011;37835;53.256;6.456;2023-07-02T14:35:53;15.60;;;4.32;;
51764;SDS011;37835;53.256;6.456;2023-07-02T14:38:19;11.77;;;4.35;;
51764;SDS011;37835;53.256;6.456;2023-07-02T14:40:45;10.00;;;4.05;;